Time;durP1;ratioP1;P1;durP2;ratioP2;P2;SDS_P1;SDS_P2;PMS_P1;PMS_P2;Temp;Humidity;BMP_temperature;BMP_pressure;BME280_temperature;BME280_humidity;BME280_pressure;Samples;Min_cycle;Max_cycle;Signal;HPM_P1;HPM_P2
2022/03/16 00:02:22;;;;;;;16.27;7.72;;;9.50;99.90;;;;;;5010368;28;20045;-62
2022/03/16 00:05:26;;;;;;;27.52;10.77;;;9.50;99.90;;;;;;5010718;28;20076;-61
2022/03/16 00:08:31;;;;;;;17.20;8.43;;;9.60;99.90;;;;;;5010906;28;20385;-61
2022/03/16 00:11:36;;;;;;;16.50;7.60;;;9.80;99.90;;;;;;5010156;28;20068;-61
2022/03/16 00:14:41;;;;;;;14.10;7.85;;;9.90;99.90;;;;;;5010260;28;20052;-61
2022/03/16 00:17:45;;;;;;;20.75;9.02;;;10.00;99.90;;;;;;5010367;28;20053;-61
2022/03/16 00:20:49;;;;;;;16.33;7.85;;;10.00;99.90;;;;;;5009323;28;20053;-61
2022/03/16 00:23:53;;;;;;;19.23;8.95;;;10.10;99.90;;;;;;5010320;28;20037;-61
2022/03/16 00:26:57;;;;;;;16.33;8.82;;;10.10;99.90;;;;;;5010479;28;20049;-62
2022/03/16 00:30:02;;;;;;;22.73;10.30;;;10.20;99.90;;;;;;5010383;28;20045;-61
2022/03/16 00:33:06;;;;;;;21.58;9.73;;;10.30;99.90;;;;;;5010470;28;20065;-61
2022/03/16 00:36:10;;;;;;;20.50;10.50;;;10.30;99.90;;;;;;5009946;28;20037;-61
2022/03/16 00:39:14;;;;;;;20.33;10.07;;;10.30;99.90;;;;;;5010641;28;20056;-61
2022/03/16 00:42:19;;;;;;;17.75;10.75;;;10.40;99.90;;;;;;5020278;28;20393;-61
2022/03/16 00:45:23;;;;;;;17.17;10.52;;;10.40;99.90;;;;;;5010165;28;20045;-61
2022/03/16 00:48:30;;;;;;;17.33;10.93;;;10.40;99.90;;;;;;5009962;28;20396;-61
2022/03/16 00:51:34;;;;;;;21.50;9.30;;;10.40;99.90;;;;;;5009483;28;20319;-61
2022/03/16 00:54:38;;;;;;;18.15;9.40;;;10.50;99.90;;;;;;5010303;28;20500;-61
2022/03/16 00:57:42;;;;;;;33.95;15.23;;;10.50;99.90;;;;;;5009539;28;20045;-61
2022/03/16 01:00:46;;;;;;;20.88;11.25;;;10.60;99.90;;;;;;5009662;28;20088;-62
2022/03/16 01:03:50;;;;;;;24.77;12.85;;;10.60;99.90;;;;;;5013601;28;20065;-61
2022/03/16 01:06:54;;;;;;;16.77;9.07;;;10.60;99.90;;;;;;5012762;28;20085;-61
2022/03/16 01:09:58;;;;;;;11.88;8.05;;;10.70;99.90;;;;;;5012865;28;20527;-60
2022/03/16 01:13:03;;;;;;;10.95;8.40;;;10.70;99.90;;;;;;5012690;28;20060;-61
2022/03/16 01:16:07;;;;;;;13.77;9.23;;;10.80;99.90;;;;;;5024319;28;20053;-62
2022/03/16 01:19:14;;;;;;;21.15;9.57;;;10.80;99.90;;;;;;5013014;28;20388;-61
2022/03/16 01:22:18;;;;;;;24.17;12.43;;;10.80;99.90;;;;;;5013083;28;20049;-61
2022/03/16 01:25:22;;;;;;;25.52;10.13;;;10.80;99.90;;;;;;5013113;28;20433;-62
2022/03/16 01:28:27;;;;;;;17.20;11.00;;;10.80;99.90;;;;;;5013400;28;20396;-61
2022/03/16 01:31:33;;;;;;;18.80;9.38;;;10.80;99.90;;;;;;5013106;28;20049;-61
2022/03/16 01:34:37;;;;;;;14.80;9.15;;;10.80;99.90;;;;;;5013470;28;20060;-61
2022/03/16 01:37:43;;;;;;;19.02;10.00;;;10.70;99.90;;;;;;5013188;28;20041;-61
2022/03/16 01:40:47;;;;;;;17.02;10.35;;;10.70;99.90;;;;;;5013121;28;20049;-61
2022/03/16 01:43:56;;;;;;;19.80;9.73;;;10.60;99.90;;;;;;5013376;28;20033;-61
2022/03/16 01:46:59;;;;;;;14.52;9.68;;;10.60;99.90;;;;;;5013741;28;20521;-62
2022/03/16 01:50:05;;;;;;;14.00;9.95;;;10.50;99.90;;;;;;5013256;28;20049;-61
2022/03/16 01:53:11;;;;;;;18.33;10.52;;;10.40;99.90;;;;;;5012469;28;20060;-61
2022/03/16 01:56:16;;;;;;;15.90;11.07;;;10.40;99.90;;;;;;5012019;28;20049;-61
2022/03/16 01:59:20;;;;;;;18.20;11.20;;;10.20;99.90;;;;;;5012169;28;20045;-61
2022/03/16 02:02:24;;;;;;;21.05;11.48;;;10.10;99.90;;;;;;5012274;28;20053;-61
2022/03/16 02:05:28;;;;;;;17.80;11.60;;;9.90;99.90;;;;;;5012515;28;20073;-61
2022/03/16 02:08:35;;;;;;;20.88;12.20;;;9.70;99.90;;;;;;5012792;28;20061;-61
2022/03/16 02:11:40;;;;;;;18.92;11.27;;;9.70;99.90;;;;;;5012813;28;20064;-61
2022/03/16 02:14:44;;;;;;;20.17;12.10;;;9.80;99.90;;;;;;5011934;28;20056;-61
2022/03/16 02:17:50;;;;;;;20.08;12.13;;;9.90;99.90;;;;;;5012400;28;20052;-61
2022/03/16 02:20:56;;;;;;;26.23;13.80;;;9.90;99.90;;;;;;5011145;28;20617;-61
2022/03/16 02:24:01;;;;;;;24.70;12.80;;;10.00;99.90;;;;;;5012563;28;20539;-61
2022/03/16 02:27:05;;;;;;;24.92;12.13;;;10.00;99.90;;;;;;5012778;28;20056;-61
2022/03/16 02:30:10;;;;;;;25.33;12.18;;;9.90;99.90;;;;;;5012185;28;20060;-61
2022/03/16 02:33:14;;;;;;;24.77;13.50;;;9.90;99.90;;;;;;5012608;28;20505;-61
2022/03/16 02:36:19;;;;;;;23.35;12.95;;;10.00;99.90;;;;;;5012043;28;20052;-61
2022/03/16 02:39:22;;;;;;;26.52;13.32;;;10.00;99.90;;;;;;5012245;28;20052;-61
2022/03/16 02:42:27;;;;;;;22.85;13.63;;;9.90;99.90;;;;;;5012059;28;20057;-62
2022/03/16 02:45:31;;;;;;;21.48;13.02;;;9.90;99.90;;;;;;5012152;28;20571;-61
2022/03/16 02:48:35;;;;;;;22.33;13.68;;;9.80;99.90;;;;;;5011957;28;20049;-61
2022/03/16 02:51:39;;;;;;;24.95;13.43;;;9.80;99.90;;;;;;5011343;28;20045;-61
2022/03/16 02:54:43;;;;;;;21.35;13.80;;;9.70;99.90;;;;;;5011863;28;20045;-62
2022/03/16 02:57:47;;;;;;;24.60;13.98;;;9.60;99.90;;;;;;5012066;28;20044;-61
2022/03/16 03:00:51;;;;;;;24.40;14.02;;;9.60;99.90;;;;;;5011037;28;20048;-61
2022/03/16 03:03:55;;;;;;;21.00;12.52;;;9.50;99.90;;;;;;5012427;28;20041;-61
2022/03/16 03:06:59;;;;;;;27.27;14.75;;;9.60;99.90;;;;;;5011655;28;20385;-61
2022/03/16 03:10:04;;;;;;;26.15;13.68;;;9.60;99.90;;;;;;5011904;28;20049;-61
2022/03/16 03:13:08;;;;;;;24.85;14.25;;;9.60;99.90;;;;;;5011211;28;20053;-61
2022/03/16 03:16:12;;;;;;;23.15;14.35;;;9.50;99.90;;;;;;5010358;28;20053;-61
2022/03/16 03:19:16;;;;;;;21.45;14.60;;;9.60;99.90;;;;;;5010699;28;20052;-61
2022/03/16 03:22:24;;;;;;;24.95;14.50;;;9.70;99.90;;;;;;5010332;28;20045;-61
2022/03/16 03:25:28;;;;;;;26.55;15.73;;;9.70;99.90;;;;;;5009702;28;20036;-61
2022/03/16 03:28:32;;;;;;;28.70;14.18;;;9.70;99.90;;;;;;5010430;28;20045;-61
2022/03/16 03:31:36;;;;;;;20.38;13.77;;;9.80;99.90;;;;;;5009598;28;20041;-61
2022/03/16 03:34:45;;;;;;;26.80;14.18;;;9.70;99.90;;;;;;5010421;28;20045;-62
2022/03/16 03:37:52;;;;;;;28.08;16.10;;;9.80;99.90;;;;;;5010377;28;20515;-60
2022/03/16 03:40:56;;;;;;;21.90;13.68;;;9.80;99.90;;;;;;5009695;28;20048;-60
2022/03/16 03:44:00;;;;;;;24.33;11.73;;;9.90;99.90;;;;;;5010309;28;20053;-61
2022/03/16 03:47:05;;;;;;;21.73;11.00;;;10.00;99.90;;;;;;5010175;28;20053;-60
2022/03/16 03:50:09;;;;;;;20.02;10.30;;;10.10;99.90;;;;;;5010196;28;20488;-61
2022/03/16 03:53:14;;;;;;;15.05;9.68;;;10.20;99.90;;;;;;5009947;28;20045;-61
2022/03/16 03:56:18;;;;;;;10.32;7.40;;;10.30;99.90;;;;;;5010058;28;20100;-61
2022/03/16 03:59:25;;;;;;;14.40;7.50;;;10.40;99.90;;;;;;5009794;28;20045;-61
2022/03/16 04:02:29;;;;;;;13.23;6.38;;;10.40;99.90;;;;;;5009987;28;20040;-62
2022/03/16 04:05:33;;;;;;;9.85;7.25;;;10.50;99.90;;;;;;5010009;28;20389;-61
2022/03/16 04:08:39;;;;;;;13.30;7.53;;;10.50;99.90;;;;;;5008729;28;20041;-61
2022/03/16 04:11:43;;;;;;;14.00;8.02;;;10.50;99.90;;;;;;5009395;28;20053;-61
2022/03/16 04:14:47;;;;;;;13.63;8.68;;;10.30;99.90;;;;;;4967145;28;1229265;-61
2022/03/16 04:17:51;;;;;;;12.68;6.70;;;10.20;99.90;;;;;;5010487;28;20061;-61
2022/03/16 04:20:55;;;;;;;16.70;7.88;;;10.30;99.90;;;;;;5010086;28;20394;-61
2022/03/16 04:24:00;;;;;;;15.18;7.53;;;10.30;99.90;;;;;;5010492;28;20049;-61
2022/03/16 04:27:04;;;;;;;14.27;7.25;;;10.30;99.90;;;;;;5010550;28;20053;-61
2022/03/16 04:30:08;;;;;;;12.48;7.25;;;10.30;99.90;;;;;;5010446;28;20068;-61
2022/03/16 04:33:12;;;;;;;16.42;8.65;;;10.40;99.90;;;;;;5010711;28;20044;-62
2022/03/16 04:36:16;;;;;;;15.60;9.07;;;10.30;99.90;;;;;;5009451;28;20409;-61
2022/03/16 04:39:20;;;;;;;16.38;9.93;;;10.30;99.90;;;;;;5009951;28;20045;-61
2022/03/16 04:42:24;;;;;;;19.73;10.48;;;10.20;99.90;;;;;;5009658;28;20248;-62
2022/03/16 04:45:28;;;;;;;22.48;12.20;;;10.10;99.90;;;;;;5010239;28;20057;-61
2022/03/16 04:48:32;;;;;;;19.80;12.13;;;10.00;99.90;;;;;;5010528;28;20496;-61
2022/03/16 04:51:36;;;;;;;21.75;12.00;;;9.90;99.90;;;;;;5009549;28;20041;-61
2022/03/16 04:54:40;;;;;;;18.65;12.25;;;9.80;99.90;;;;;;5010074;28;20162;-61
2022/03/16 04:57:44;;;;;;;23.55;12.77;;;9.70;99.90;;;;;;5010181;28;20045;-61
2022/03/16 05:00:48;;;;;;;25.38;13.65;;;9.70;99.90;;;;;;5009444;28;20400;-61
2022/03/16 05:03:52;;;;;;;23.13;14.20;;;9.60;99.90;;;;;;5010060;28;20045;-61
2022/03/16 05:06:57;;;;;;;22.33;14.45;;;9.50;99.90;;;;;;5009975;28;20044;-61
2022/03/16 05:10:01;;;;;;;30.73;16.20;;;9.30;99.90;;;;;;5010186;28;20053;-61
2022/03/16 05:13:05;;;;;;;35.33;18.23;;;9.30;99.90;;;;;;5020390;28;20049;-61
2022/03/16 05:16:09;;;;;;;29.73;16.70;;;9.20;99.90;;;;;;5009556;28;20044;-61
2022/03/16 05:19:13;;;;;;;29.77;16.70;;;9.20;99.90;;;;;;5010100;28;20384;-61
2022/03/16 05:22:17;;;;;;;32.60;17.42;;;9.00;99.90;;;;;;5009138;28;20500;-61
2022/03/16 05:25:23;;;;;;;34.97;17.92;;;8.90;99.90;;;;;;5010059;28;20057;-61
2022/03/16 05:28:27;;;;;;;31.52;18.90;;;8.80;99.90;;;;;;5009816;28;20041;-61
2022/03/16 05:31:31;;;;;;;26.52;16.55;;;8.70;99.90;;;;;;5008622;28;20041;-61
2022/03/16 05:34:35;;;;;;;31.75;18.10;;;8.70;99.90;;;;;;5009933;28;20045;-61
2022/03/16 05:37:40;;;;;;;28.73;16.65;;;8.70;99.90;;;;;;5009560;28;20045;-61
2022/03/16 05:40:45;;;;;;;31.33;17.23;;;8.70;99.90;;;;;;5009415;28;20389;-61
2022/03/16 05:43:49;;;;;;;28.90;17.73;;;8.60;99.90;;;;;;5009444;28;20045;-61
2022/03/16 05:46:54;;;;;;;35.33;18.38;;;8.60;99.90;;;;;;5009922;28;20049;-61
2022/03/16 05:49:58;;;;;;;35.78;20.90;;;8.60;99.90;;;;;;5011902;28;20078;-61
2022/03/16 05:53:03;;;;;;;35.88;21.38;;;8.70;99.90;;;;;;5013035;28;20425;-61
2022/03/16 05:56:07;;;;;;;35.40;20.48;;;8.70;99.90;;;;;;5013389;28;20065;-61
2022/03/16 05:59:11;;;;;;;31.15;18.40;;;8.70;99.90;;;;;;5013054;28;20049;-61
2022/03/16 06:02:15;;;;;;;37.67;18.23;;;8.70;99.90;;;;;;5012519;28;20037;-61
2022/03/16 06:05:20;;;;;;;30.42;18.58;;;8.70;99.90;;;;;;5013232;28;20036;-61
2022/03/16 06:08:24;;;;;;;29.75;17.38;;;8.70;99.90;;;;;;5012761;28;20052;-61
2022/03/16 06:11:29;;;;;;;35.58;17.45;;;8.70;99.90;;;;;;5012445;28;20409;-61
2022/03/16 06:14:33;;;;;;;27.52;16.52;;;8.70;99.90;;;;;;5012346;28;20048;-60
2022/03/16 06:17:37;;;;;;;28.70;18.00;;;8.80;99.90;;;;;;5022903;28;20500;-60
2022/03/16 06:20:41;;;;;;;27.30;17.15;;;8.90;99.90;;;;;;5011814;28;20049;-60
2022/03/16 06:23:45;;;;;;;32.70;19.05;;;8.90;99.90;;;;;;5013107;28;20041;-60
2022/03/16 06:26:49;;;;;;;37.83;18.85;;;8.90;99.90;;;;;;5012852;28;20045;-61
2022/03/16 06:29:53;;;;;;;32.08;17.70;;;8.90;99.90;;;;;;5013129;28;20049;-60
2022/03/16 06:32:57;;;;;;;27.63;16.73;;;8.80;99.90;;;;;;5012622;28;20045;-61
2022/03/16 06:36:01;;;;;;;28.50;18.00;;;8.90;99.90;;;;;;5012809;28;20052;-62
2022/03/16 06:39:06;;;;;;;23.95;16.23;;;9.00;99.90;;;;;;5012180;28;20045;-61
2022/03/16 06:42:10;;;;;;;25.13;15.40;;;9.10;99.90;;;;;;5011721;28;20057;-61
2022/03/16 06:45:15;;;;;;;27.85;16.08;;;9.00;99.90;;;;;;5011694;28;20048;-61
2022/03/16 06:48:23;;;;;;;32.25;15.57;;;8.90;99.90;;;;;;5012479;28;20049;-61
2022/03/16 06:51:27;;;;;;;28.63;15.88;;;9.00;99.90;;;;;;5011635;28;20057;-61
2022/03/16 06:54:31;;;;;;;21.88;15.13;;;8.90;99.90;;;;;;5012414;28;20065;-61
2022/03/16 06:57:35;;;;;;;29.23;16.30;;;9.00;99.90;;;;;;5011941;28;20049;-62
2022/03/16 07:00:40;;;;;;;29.13;15.77;;;9.20;99.90;;;;;;5011866;28;20044;-61
2022/03/16 07:03:44;;;;;;;29.33;15.80;;;9.30;99.90;;;;;;5024331;28;20041;-61
2022/03/16 07:06:49;;;;;;;35.78;19.05;;;9.40;99.90;;;;;;5028322;28;20048;-61
2022/03/16 07:09:53;;;;;;;33.63;18.05;;;9.50;99.90;;;;;;5027420;28;20044;-61
2022/03/16 07:12:57;;;;;;;29.75;15.70;;;9.60;99.90;;;;;;5025106;28;20037;-61
2022/03/16 07:16:01;;;;;;;35.35;16.92;;;9.40;99.90;;;;;;5027320;28;20049;-61
2022/03/16 07:19:05;;;;;;;25.02;14.25;;;9.30;99.90;;;;;;5028685;28;20044;-61
2022/03/16 07:22:09;;;;;;;26.70;14.88;;;9.40;99.90;;;;;;5025170;28;20040;-61
2022/03/16 07:25:13;;;;;;;27.05;15.48;;;9.40;99.90;;;;;;5026362;28;20044;-61
2022/03/16 07:28:19;;;;;;;23.70;14.63;;;9.50;99.90;;;;;;5025149;28;20602;-61
2022/03/16 07:31:23;;;;;;;25.90;14.05;;;9.80;99.90;;;;;;5028878;28;20048;-61
2022/03/16 07:34:27;;;;;;;27.17;14.75;;;10.00;99.90;;;;;;5020192;28;20495;-61
2022/03/16 07:37:32;;;;;;;25.33;14.48;;;10.30;99.90;;;;;;5024680;28;20048;-61
2022/03/16 07:40:37;;;;;;;21.60;14.45;;;10.40;99.90;;;;;;5029085;28;20060;-61
2022/03/16 07:43:41;;;;;;;26.60;14.18;;;10.20;99.90;;;;;;5023230;28;20040;-61
2022/03/16 07:46:45;;;;;;;17.60;11.52;;;10.30;99.90;;;;;;5022339;28;20044;-61
2022/03/16 07:49:49;;;;;;;23.27;13.10;;;10.40;99.90;;;;;;5029395;28;20060;-61
2022/03/16 07:52:54;;;;;;;21.95;13.55;;;10.40;99.90;;;;;;5024505;28;20401;-61
2022/03/16 07:56:00;;;;;;;22.80;14.00;;;10.10;99.90;;;;;;5026739;28;20045;-61
2022/03/16 07:59:05;;;;;;;25.02;14.02;;;10.00;99.90;;;;;;5025421;28;20041;-61
2022/03/16 08:02:09;;;;;;;24.70;14.10;;;9.80;99.90;;;;;;5026160;28;20048;-62
2022/03/16 08:05:14;;;;;;;30.00;15.88;;;9.60;99.90;;;;;;5030053;28;20663;-61
2022/03/16 08:08:18;;;;;;;23.63;15.00;;;9.50;99.90;;;;;;5028273;28;20044;-61
2022/03/16 08:11:22;;;;;;;31.85;15.15;;;9.50;99.90;;;;;;5021995;28;20079;-61
2022/03/16 08:14:26;;;;;;;30.35;16.50;;;9.50;99.90;;;;;;5027905;28;20494;-61
2022/03/16 08:17:30;;;;;;;23.95;14.77;;;9.50;99.90;;;;;;5023191;28;20056;-61
2022/03/16 08:20:35;;;;;;;27.20;14.45;;;9.50;99.90;;;;;;5025079;28;20041;-61
2022/03/16 08:23:39;;;;;;;29.50;15.88;;;9.80;99.90;;;;;;5025807;28;20483;-61
2022/03/16 08:26:43;;;;;;;29.98;15.75;;;10.00;99.90;;;;;;5026747;28;20044;-61
2022/03/16 08:29:47;;;;;;;26.83;14.27;;;9.90;99.90;;;;;;5025915;28;20060;-61
2022/03/16 08:32:51;;;;;;;28.05;14.05;;;10.00;99.90;;;;;;5024434;28;20048;-61
2022/03/16 08:35:57;;;;;;;25.40;14.68;;;10.10;99.90;;;;;;5025478;28;20053;-62
2022/03/16 08:39:03;;;;;;;20.50;12.25;;;10.40;99.90;;;;;;5023951;28;20048;-61
2022/03/16 08:42:08;;;;;;;19.55;13.45;;;10.60;99.90;;;;;;5032025;28;20377;-61
2022/03/16 08:45:12;;;;;;;21.25;13.23;;;10.60;99.90;;;;;;5024433;28;20049;-61
2022/03/16 08:48:16;;;;;;;29.65;14.45;;;10.60;99.90;;;;;;5028206;28;20048;-61
2022/03/16 08:51:21;;;;;;;24.92;13.80;;;10.30;99.90;;;;;;5025226;28;20052;-61
2022/03/16 08:54:25;;;;;;;24.15;13.77;;;10.20;99.90;;;;;;5029074;28;20044;-61
2022/03/16 08:57:29;;;;;;;22.38;13.93;;;10.50;99.90;;;;;;5029137;28;20064;-61
2022/03/16 09:00:33;;;;;;;30.25;14.98;;;10.50;99.90;;;;;;5026049;28;20040;-61
2022/03/16 09:03:38;;;;;;;23.48;13.93;;;10.40;99.90;;;;;;5024929;28;20053;-61
2022/03/16 09:06:43;;;;;;;22.08;14.20;;;10.50;99.90;;;;;;5026516;28;20054;-61
2022/03/16 09:09:47;;;;;;;27.05;13.90;;;10.70;99.90;;;;;;5027172;28;20088;-61
2022/03/16 09:12:51;;;;;;;25.63;14.38;;;10.90;99.90;;;;;;5023608;28;20060;-61
2022/03/16 09:15:59;;;;;;;24.77;13.32;;;10.50;99.90;;;;;;5023123;28;20652;-61
2022/03/16 09:19:03;;;;;;;19.70;13.38;;;10.60;99.90;;;;;;5024061;28;20052;-61
2022/03/16 09:22:07;;;;;;;21.15;13.07;;;10.60;99.90;;;;;;5025745;28;20041;-62
2022/03/16 09:25:12;;;;;;;25.42;12.75;;;10.80;99.90;;;;;;5030185;28;20044;-61
2022/03/16 09:28:16;;;;;;;22.73;13.30;;;11.20;99.90;;;;;;5029041;28;20598;-61
2022/03/16 09:31:22;;;;;;;23.17;12.82;;;11.20;99.90;;;;;;5031172;28;20037;-61
2022/03/16 09:34:27;;;;;;;25.17;13.65;;;11.60;99.90;;;;;;5027571;28;20045;-61
2022/03/16 09:37:33;;;;;;;21.55;12.25;;;12.00;99.90;;;;;;5027887;28;20044;-61
2022/03/16 09:40:38;;;;;;;45.38;14.85;;;12.00;99.90;;;;;;5026791;28;20037;-62
2022/03/16 09:43:44;;;;;;;18.02;11.95;;;12.00;99.90;;;;;;5029804;28;20512;-61
2022/03/16 09:46:52;;;;;;;18.92;11.82;;;12.00;99.90;;;;;;5033435;28;20044;-61
2022/03/16 09:49:56;;;;;;;25.50;13.23;;;12.20;99.90;;;;;;5030547;28;20044;-62
2022/03/16 09:53:01;;;;;;;20.52;11.25;;;12.30;99.90;;;;;;5025305;28;20048;-61
2022/03/16 09:56:05;;;;;;;21.42;11.25;;;11.80;99.90;;;;;;5025482;28;20087;-62
2022/03/16 09:59:10;;;;;;;19.00;11.50;;;11.50;99.90;;;;;;5029065;28;20396;-61
2022/03/16 10:02:16;;;;;;;21.95;12.55;;;11.40;99.90;;;;;;5025208;28;20041;-61
2022/03/16 10:05:22;;;;;;;23.92;11.95;;;11.20;99.90;;;;;;5029879;28;20048;-61
2022/03/16 10:08:31;;;;;;;22.13;12.60;;;11.20;99.90;;;;;;5027996;28;20040;-61
2022/03/16 10:15:10;;;;;;;;;;;11.10;99.90;;;;;;5026248;28;20052;-62
2022/03/16 10:18:17;;;;;;;23.92;11.70;;;11.40;99.90;;;;;;5024364;28;19921;-62
2022/03/16 10:21:22;;;;;;;23.10;12.88;;;11.50;99.90;;;;;;5027554;28;20488;-62
2022/03/16 10:24:29;;;;;;;27.67;13.30;;;11.70;99.90;;;;;;5030093;28;20041;-62
2022/03/16 10:27:37;;;;;;;23.33;12.05;;;11.80;99.90;;;;;;5032955;28;20041;-61
2022/03/16 10:31:02;;;;;;;21.50;11.88;;;11.90;99.90;;;;;;5026918;28;20044;-61
2022/03/16 10:34:08;;;;;;;22.70;11.57;;;12.00;99.90;;;;;;5026283;28;20048;-61
2022/03/16 10:37:24;;;;;;;22.90;11.88;;;12.10;99.90;;;;;;5028743;28;20053;-61
2022/03/16 10:40:28;;;;;;;35.28;12.65;;;12.30;99.90;;;;;;5026998;28;20049;-62
2022/03/16 10:46:55;;;;;;;22.55;13.13;;;12.50;99.90;;;;;;5022727;28;20076;-62
2022/03/16 10:50:07;;;;;;;27.48;11.95;;;12.70;99.90;;;;;;5026243;28;20400;-62
2022/03/16 10:53:16;;;;;;;27.98;11.75;;;12.70;99.90;;;;;;5023434;28;20116;-61
2022/03/16 10:56:21;;;;;;;20.85;11.65;;;12.70;99.90;;;;;;5027071;28;20049;-62
2022/03/16 10:59:30;;;;;;;20.17;11.65;;;13.00;99.90;;;;;;5025315;28;20036;-62
2022/03/16 11:17:03;;;;;;;19.17;10.82;;;13.40;99.90;;;;;;5031016;28;20491;-59
2022/03/16 11:20:09;;;;;;;17.25;9.10;;;12.50;99.90;;;;;;5010611;28;20496;-60
2022/03/16 11:26:55;;;;;;;14.57;9.35;;;13.20;99.90;;;;;;5027106;28;20052;-60
2022/03/16 11:30:07;;;;;;;18.38;9.18;;;13.50;99.90;;;;;;5029927;28;20037;-60
2022/03/16 11:33:12;;;;;;;17.38;9.02;;;13.90;99.90;;;;;;5020638;28;20058;-60
2022/03/16 11:36:35;;;;;;;14.95;8.65;;;14.00;99.90;;;;;;5029472;28;20052;-61
2022/03/16 11:39:42;;;;;;;16.67;7.97;;;13.60;99.90;;;;;;5024249;28;20048;-60
2022/03/16 11:43:22;;;;;;;17.95;8.68;;;13.30;99.90;;;;;;5024631;28;20048;-60
2022/03/16 11:46:29;;;;;;;13.43;7.78;;;13.50;99.90;;;;;;5022910;28;20060;-60
2022/03/16 11:49:33;;;;;;;15.85;7.82;;;13.70;99.90;;;;;;5021674;28;20036;-61
2022/03/16 11:53:03;;;;;;;12.27;7.45;;;14.20;99.90;;;;;;5020143;28;20052;-60
2022/03/16 11:56:23;;;;;;;12.30;5.88;;;14.00;99.90;;;;;;5024199;28;20058;-60
2022/03/16 11:59:29;;;;;;;11.77;6.75;;;14.00;99.90;;;;;;5028937;28;21237;-60
2022/03/16 12:02:37;;;;;;;78.72;44.55;;;13.60;99.90;;;;;;5023774;28;20044;-60
2022/03/16 12:06:01;;;;;;;15.73;9.38;;;14.00;99.90;;;;;;5024868;28;20404;-59
2022/03/16 12:09:05;;;;;;;13.38;6.80;;;14.10;99.90;;;;;;5023827;28;20048;-60
2022/03/16 12:15:42;;;;;;;10.10;5.88;;;13.90;99.90;;;;;;5021672;28;20052;-60
2022/03/16 12:18:47;;;;;;;25.13;14.73;;;13.90;99.90;;;;;;5028274;28;20109;-60
2022/03/16 12:21:51;;;;;;;13.55;5.90;;;14.10;99.90;;;;;;5028156;28;20495;-60
2022/03/16 12:25:21;;;;;;;12.30;5.90;;;13.30;99.90;;;;;;5021195;28;20045;-60
2022/03/16 12:31:52;;;;;;;12.30;5.60;;;13.70;99.90;;;;;;5022166;28;20044;-60
2022/03/16 12:34:58;;;;;;;12.07;5.90;;;13.80;99.90;;;;;;5023202;28;20522;-60
2022/03/16 12:38:05;;;;;;;11.82;6.05;;;14.10;99.90;;;;;;5022251;28;20531;-61
2022/03/16 12:44:42;;;;;;;11.73;5.32;;;14.20;99.90;;;;;;5026378;28;20146;-61
2022/03/16 12:47:55;;;;;;;9.05;5.53;;;14.40;99.90;;;;;;5025591;28;20049;-60
2022/03/16 12:50:59;;;;;;;15.05;5.82;;;14.30;99.90;;;;;;5022827;28;20068;-60
2022/03/16 12:54:06;;;;;;;10.38;5.38;;;13.80;99.90;;;;;;5016382;28;20044;-60
2022/03/16 12:57:15;;;;;;;9.77;5.10;;;13.60;99.90;;;;;;5026048;28;20044;-59
2022/03/16 13:00:19;;;;;;;12.52;5.32;;;13.90;99.90;;;;;;5020312;28;20045;-60
2022/03/16 13:03:24;;;;;;;12.60;5.90;;;14.10;99.90;;;;;;5035379;28;20049;-60
2022/03/16 13:06:33;;;;;;;14.82;5.28;;;13.90;99.90;;;;;;5026440;28;20040;-59
2022/03/16 13:09:41;;;;;;;12.75;5.70;;;14.20;99.90;;;;;;5032744;28;20048;-60
2022/03/16 13:12:56;;;;;;;10.75;5.63;;;13.90;99.90;;;;;;5027019;28;20045;-60
2022/03/16 13:16:01;;;;;;;17.45;6.10;;;13.20;99.90;;;;;;5021189;28;20314;-60
2022/03/16 13:19:24;;;;;;;15.77;6.88;;;12.90;99.90;;;;;;5029715;28;20436;-60
2022/03/16 13:22:30;;;;;;;;;;;12.90;99.90;;;;;;5013601;28;20049;-60
2022/03/16 13:25:35;;;;;;;11.20;5.45;;;13.00;99.90;;;;;;5025543;28;19920;-60
2022/03/16 13:28:40;;;;;;;9.45;5.13;;;13.40;99.90;;;;;;5031871;28;20060;-60
2022/03/16 13:31:44;;;;;;;12.35;5.78;;;13.40;99.90;;;;;;5032971;28;20052;-60
2022/03/16 13:34:50;;;;;;;16.00;6.30;;;13.20;99.90;;;;;;5016038;28;20404;-63
2022/03/16 13:38:01;;;;;;;15.70;6.15;;;12.70;99.90;;;;;;5013921;28;20045;-63
2022/03/16 13:41:11;;;;;;;14.30;8.48;;;13.00;99.90;;;;;;5027918;28;20044;-62
2022/03/16 13:44:22;;;;;;;9.55;5.20;;;13.50;99.90;;;;;;5032374;28;20044;-63
2022/03/16 13:47:27;;;;;;;12.20;5.20;;;13.80;99.90;;;;;;5016970;28;20507;-62
2022/03/16 13:50:31;;;;;;;11.60;6.25;;;13.90;99.90;;;;;;5015530;28;20430;-59
2022/03/16 13:53:47;;;;;;;12.57;5.65;;;14.00;99.90;;;;;;5031935;28;20044;-60
2022/03/16 13:56:53;;;;;;;10.40;5.38;;;13.90;99.90;;;;;;5030707;28;20049;-60
2022/03/16 14:00:06;;;;;;;10.73;6.10;;;14.30;99.90;;;;;;5031654;28;20044;-60
2022/03/16 14:03:25;;;;;;;11.82;4.53;;;14.50;99.90;;;;;;5026177;28;20061;-60
2022/03/16 14:06:40;;;;;;;14.30;5.55;;;14.60;99.90;;;;;;5027084;28;20380;-60
2022/03/16 14:09:46;;;;;;;12.65;4.75;;;14.80;99.90;;;;;;5028797;28;20040;-60
2022/03/16 14:12:50;;;;;;;14.38;5.03;;;14.50;99.90;;;;;;5024129;28;20428;-60
2022/03/16 14:16:14;;;;;;;13.60;6.03;;;14.40;99.90;;;;;;5027723;28;20057;-60
2022/03/16 14:19:35;;;;;;;9.10;3.90;;;14.60;99.90;;;;;;5027198;28;20045;-63
2022/03/16 14:22:49;;;;;;;8.45;4.18;;;14.10;99.90;;;;;;5022172;28;20033;-62
2022/03/16 14:25:55;;;;;;;8.18;4.32;;;14.20;99.90;;;;;;5029877;28;20490;-64
2022/03/16 14:28:59;;;;;;;12.07;7.68;;;14.20;99.90;;;;;;5025250;28;20056;-60
2022/03/16 14:32:04;;;;;;;11.70;4.63;;;14.50;99.90;;;;;;5031547;28;20049;-59
2022/03/16 14:35:08;;;;;;;7.45;4.07;;;14.80;99.90;;;;;;5031633;28;20060;-60
2022/03/16 14:38:15;;;;;;;9.02;3.60;;;15.10;99.90;;;;;;5023918;28;20057;-61
2022/03/16 14:41:20;;;;;;;8.10;3.30;;;15.40;99.90;;;;;;5027701;28;20048;-60
2022/03/16 14:44:23;;;;;;;14.05;3.50;;;15.70;99.90;;;;;;5031146;28;20045;-60
2022/03/16 14:47:27;;;;;;;11.65;3.67;;;15.70;99.90;;;;;;5023540;28;20084;-60
2022/03/16 14:50:31;;;;;;;7.13;3.55;;;15.70;99.90;;;;;;5031129;28;20408;-60
2022/03/16 14:53:35;;;;;;;8.57;4.30;;;15.80;99.90;;;;;;5030354;28;20045;-61
2022/03/16 14:56:40;;;;;;;13.73;6.95;;;15.80;99.90;;;;;;5026620;28;20052;-61
2022/03/16 14:59:43;;;;;;;10.07;5.03;;;15.90;99.90;;;;;;5030389;28;20052;-59
2022/03/16 15:02:50;;;;;;;16.55;10.90;;;15.90;99.90;;;;;;5030413;28;20060;-61
2022/03/16 15:05:54;;;;;;;9.15;3.90;;;15.90;99.90;;;;;;5022940;28;20041;-59
2022/03/16 15:08:58;;;;;;;6.70;3.40;;;15.70;99.90;;;;;;5030815;28;20036;-60
2022/03/16 15:12:03;;;;;;;6.68;3.80;;;15.70;99.90;;;;;;5013476;28;20048;-60
2022/03/16 15:15:09;;;;;;;8.18;3.85;;;15.90;99.90;;;;;;5028542;28;20056;-60
2022/03/16 15:18:13;;;;;;;6.03;3.25;;;16.00;99.90;;;;;;5024724;28;20515;-61
2022/03/16 15:21:17;;;;;;;10.18;3.22;;;15.90;99.90;;;;;;5028896;28;20045;-61
2022/03/16 15:24:21;;;;;;;8.73;3.78;;;16.00;99.90;;;;;;5030276;28;20507;-61
2022/03/16 15:27:27;;;;;;;10.75;5.40;;;16.10;99.90;;;;;;5029762;28;20052;-61
2022/03/16 15:30:31;;;;;;;10.25;4.78;;;16.20;99.90;;;;;;5029446;28;20380;-61
2022/03/16 15:33:35;;;;;;;8.93;3.80;;;16.30;99.90;;;;;;5030599;28;20044;-61
2022/03/16 15:36:39;;;;;;;10.70;4.18;;;16.30;99.90;;;;;;5029890;28;20495;-61
2022/03/16 15:42:38;;;;;;;8.43;4.55;;;16.40;99.90;;;;;;5029340;28;20049;-60
2022/03/16 15:43:08;;;;;;;10.77;4.70;;;16.10;99.90;;;;;;5027868;28;20056;-60
2022/03/16 15:46:15;;;;;;;9.88;3.80;;;15.90;99.90;;;;;;5027803;28;20083;-61
2022/03/16 15:49:23;;;;;;;9.93;3.83;;;16.00;99.90;;;;;;5030974;28;20056;-60
2022/03/16 15:52:27;;;;;;;8.60;3.40;;;16.00;99.90;;;;;;5022681;28;20621;-59
2022/03/16 15:55:32;;;;;;;7.10;3.60;;;15.80;99.90;;;;;;5031498;28;20048;-60
2022/03/16 15:58:36;;;;;;;7.57;3.28;;;15.60;99.90;;;;;;5030450;28;20060;-60
2022/03/16 16:01:45;;;;;;;8.82;3.60;;;15.50;99.90;;;;;;5030759;28;20041;-60
2022/03/16 16:04:49;;;;;;;9.95;4.43;;;15.40;99.90;;;;;;5012164;28;20045;-60
2022/03/16 16:07:54;;;;;;;6.75;3.30;;;15.50;99.90;;;;;;5011801;28;20061;-60
2022/03/16 16:11:11;;;;;;;12.43;4.18;;;15.50;99.90;;;;;;5010955;28;20049;-60
2022/03/16 16:14:16;;;;;;;9.38;3.80;;;15.50;99.90;;;;;;5026648;28;20056;-60
2022/03/16 16:17:20;;;;;;;12.95;3.85;;;15.50;99.90;;;;;;5031350;28;20052;-60
2022/03/16 16:20:24;;;;;;;8.73;3.83;;;15.40;99.90;;;;;;5030605;28;20045;-60
2022/03/16 16:23:29;;;;;;;9.07;4.35;;;15.10;99.90;;;;;;5030915;28;20048;-61
2022/03/16 16:26:37;;;;;;;10.57;4.30;;;14.90;99.90;;;;;;5029338;28;20044;-61
2022/03/16 16:29:44;;;;;;;8.20;3.78;;;14.90;99.90;;;;;;5029619;28;20052;-61